createdAt,value
2018-12-21T00:02:20.849Z,99785.78
2018-12-21T00:04:46.817Z,99793.38
2018-12-21T00:07:12.765Z,99788.78
2018-12-21T00:09:38.716Z,99793.83
2018-12-21T00:12:04.671Z,99793.83
2018-12-21T00:14:30.643Z,99797.20
2018-12-21T00:16:56.577Z,99797.16
2018-12-21T00:19:22.547Z,99792.10
2018-12-21T00:21:48.508Z,99796.28
2018-12-21T00:24:14.476Z,99793.36
2018-12-21T00:26:40.422Z,99796.36
2018-12-21T00:29:06.380Z,99795.98
2018-12-21T00:31:32.323Z,99787.97
2018-12-21T00:33:58.301Z,99794.72
2018-12-21T00:36:24.241Z,99793.83
2018-12-21T00:38:50.223Z,99790.48
2018-12-21T00:41:16.181Z,99783.77
2018-12-21T00:43:42.156Z,99788.81
2018-12-21T00:46:08.134Z,99783.73
2018-12-21T00:48:34.102Z,99785.03
2018-12-21T00:51:00.041Z,99780.83
2018-12-21T00:53:26.012Z,99777.86
2018-12-21T00:55:51.950Z,99780.41
2018-12-21T00:58:17.887Z,99780.44
2018-12-21T01:00:43.817Z,99774.51
2018-12-21T01:03:09.787Z,99770.32
2018-12-21T01:05:35.729Z,99775.78
2018-12-21T01:08:01.713Z,99777.91
2018-12-21T01:10:27.655Z,99782.09
2018-12-21T01:12:53.600Z,99782.09
2018-12-21T01:15:19.562Z,99776.62
2018-12-21T01:17:45.500Z,99784.20
2018-12-21T01:20:11.471Z,99777.04
2018-12-21T01:22:37.465Z,99779.98
2018-12-21T01:25:03.452Z,99777.03
2018-12-21T01:27:29.415Z,99772.80
2018-12-21T01:29:55.384Z,99776.18
2018-12-21T01:32:21.329Z,99782.52
2018-12-21T01:34:47.342Z,99779.97
2018-12-21T01:37:13.296Z,99781.23
2018-12-21T01:39:39.271Z,99777.91
2018-12-21T01:42:05.228Z,99785.49
2018-12-21T01:44:31.270Z,99772.83
2018-12-21T01:46:57.228Z,99766.08
2018-12-21T01:49:23.182Z,99757.64
2018-12-21T01:51:49.116Z,99761.05
2018-12-21T01:54:15.066Z,99724.39
2018-12-21T01:56:41.009Z,99762.31
2018-12-21T01:59:06.948Z,99759.36
2018-12-21T02:01:32.902Z,99756.84
2018-12-21T02:03:58.841Z,99758.11
2018-12-21T02:06:24.796Z,99752.20
2018-12-21T02:08:50.810Z,99750.91
2018-12-21T02:11:16.769Z,99749.25
2018-12-21T02:13:42.704Z,99756.02
2018-12-21T02:16:08.652Z,99761.06
2018-12-21T02:18:34.616Z,99760.22
2018-12-21T02:21:00.582Z,99755.55
2018-12-21T02:23:26.529Z,99758.53
2018-12-21T02:25:52.491Z,99747.99
2018-12-21T02:28:18.443Z,99741.23
2018-12-21T02:30:44.401Z,99733.24
2018-12-21T02:33:10.367Z,99738.28
2018-12-21T02:35:36.438Z,99737.45
2018-12-21T02:38:02.401Z,99739.54
2018-12-21T02:40:28.356Z,99740.40
2018-12-21T02:42:54.314Z,99735.35
2018-12-21T02:45:20.273Z,99735.34
2018-12-21T02:47:46.232Z,99737.88
2018-12-21T02:50:12.241Z,99742.49
2018-12-21T02:52:38.184Z,99738.30
2018-12-21T02:55:04.139Z,99733.66
2018-12-21T02:57:30.075Z,99733.64
2018-12-21T02:59:56.015Z,99729.88
2018-12-21T03:02:21.991Z,99729.44
2018-12-21T03:04:47.937Z,99723.14
2018-12-21T03:07:13.882Z,99723.95
2018-12-21T03:09:39.827Z,99721.02
2018-12-21T03:12:06.429Z,99721.45
2018-12-21T03:14:32.407Z,99714.27
2018-12-21T03:16:58.352Z,99710.06
2018-12-21T03:19:24.286Z,99708.39
2018-12-21T03:21:50.238Z,99707.12
2018-12-21T03:24:16.199Z,99703.34
2018-12-21T03:26:42.143Z,99700.39
2018-12-21T03:29:08.083Z,99702.07
2018-12-21T03:31:34.034Z,99701.24
2018-12-21T03:33:59.987Z,99695.75
2018-12-21T03:36:25.936Z,99689.44
2018-12-21T03:38:52.024Z,99688.62
2018-12-21T03:41:18.001Z,99686.91
2018-12-21T03:43:43.951Z,99694.49
2018-12-21T03:46:09.926Z,99681.03
2018-12-21T03:48:35.888Z,99684.80
2018-12-21T03:51:01.840Z,99681.86
2018-12-21T03:53:27.775Z,99681.45
2018-12-21T03:55:53.709Z,99678.91
2018-12-21T03:58:19.664Z,99679.75
2018-12-21T04:00:45.622Z,99676.41
2018-12-21T04:03:11.586Z,99674.70
2018-12-21T04:05:37.525Z,99678.91
2018-12-21T04:08:03.480Z,99677.66
2018-12-21T04:10:29.421Z,99680.61
2018-12-21T04:12:55.365Z,99667.56
2018-12-21T04:15:21.299Z,99665.44
2018-12-21T04:17:47.267Z,99663.75
2018-12-21T04:20:13.216Z,99667.55
2018-12-21T04:22:39.153Z,99660.83
2018-12-21T04:25:05.120Z,99653.66
2018-12-21T04:27:31.075Z,99652.39
2018-12-21T04:29:57.024Z,99643.97
2018-12-21T04:32:23.054Z,99646.50
2018-12-21T04:34:49.021Z,99641.44
2018-12-21T04:37:14.979Z,99645.23
2018-12-21T04:39:40.931Z,99634.70
2018-12-21T04:42:06.900Z,99642.30
2018-12-21T04:44:32.856Z,99639.78
2018-12-21T04:46:58.806Z,99640.59
2018-12-21T04:49:24.771Z,99630.92
2018-12-21T04:51:50.795Z,99632.20
2018-12-21T04:54:16.748Z,99629.66
2018-12-21T04:56:42.720Z,99630.51
2018-12-21T04:59:09.723Z,99617.86
2018-12-21T05:01:35.885Z,99621.23
2018-12-21T05:04:01.931Z,99621.25
2018-12-21T05:06:27.909Z,99624.61
2018-12-21T05:08:53.882Z,99625.45
2018-12-21T05:11:19.981Z,99627.55
2018-12-21T05:13:46.074Z,99626.27
2018-12-21T05:16:12.092Z,99620.39
2018-12-21T05:18:38.047Z,99625.42
2018-12-21T05:21:03.992Z,99616.20
2018-12-21T05:23:29.943Z,99622.08
2018-12-21T05:25:55.880Z,99619.55
2018-12-21T05:28:21.843Z,99622.05
2018-12-21T05:30:47.776Z,99625.85
2018-12-21T05:33:13.773Z,99624.58
2018-12-21T05:35:39.739Z,99622.46
2018-12-21T05:38:05.709Z,99628.39
2018-12-21T05:40:31.652Z,99619.92
2018-12-21T05:42:57.605Z,99610.68
2018-12-21T05:45:23.639Z,99610.27
2018-12-21T05:47:49.619Z,99614.09
2018-12-21T05:50:15.568Z,99609.03
2018-12-21T05:52:41.542Z,99609.46
2018-12-21T05:55:07.587Z,99603.96
2018-12-21T05:57:33.610Z,99601.84
2018-12-21T05:59:59.576Z,99596.34
2018-12-21T06:02:25.634Z,99594.17
2018-12-21T06:04:51.577Z,99585.75
2018-12-21T06:07:17.514Z,99586.59
2018-12-21T06:09:43.456Z,99578.98
2018-12-21T06:12:09.397Z,99572.72
2018-12-21T06:14:35.349Z,99578.21
2018-12-21T06:17:01.309Z,99579.45
2018-12-21T06:19:27.259Z,99573.94
2018-12-21T06:21:53.211Z,99571.73
2018-12-21T06:24:19.167Z,99564.61
2018-12-21T06:26:45.140Z,99562.08
2018-12-21T06:29:11.102Z,99557.83
2018-12-21T06:31:37.039Z,99558.34
2018-12-21T06:34:02.993Z,99546.59
2018-12-21T06:36:28.929Z,99539.48
2018-12-21T06:38:54.880Z,99536.58
2018-12-21T06:41:20.840Z,99526.02
2018-12-21T06:43:46.794Z,99526.83
2018-12-21T06:46:14.237Z,99523.89
2018-12-21T06:48:40.509Z,99528.45
2018-12-21T06:51:06.863Z,99526.22
2018-12-21T06:53:32.800Z,99520.36
2018-12-21T06:55:58.759Z,99524.27
2018-12-21T06:58:24.820Z,99520.06
2018-12-21T07:00:50.757Z,99518.83
2018-12-21T07:03:17.147Z,99512.87
2018-12-21T07:05:43.736Z,99515.41
2018-12-21T07:08:09.706Z,99510.64
2018-12-21T07:10:35.772Z,99506.08
2018-12-21T07:13:01.742Z,99502.30
2018-12-21T07:15:27.714Z,99506.94
2018-12-21T07:17:53.657Z,99504.77
2018-12-21T07:20:19.619Z,99504.33
2018-12-21T07:22:45.557Z,99510.37
2018-12-21T07:25:11.516Z,99501.12
2018-12-21T07:27:37.480Z,99502.38
2018-12-21T07:30:03.429Z,99507.42
2018-12-21T07:32:29.385Z,99502.36
2018-12-21T07:34:55.320Z,99499.16
2018-12-21T07:37:21.296Z,99490.34
2018-12-21T07:39:47.227Z,99493.80
2018-12-21T07:42:13.161Z,99491.92
2018-12-21T07:44:39.093Z,99483.62
2018-12-21T07:47:05.062Z,99484.75
2018-12-21T07:49:31.004Z,99483.10
2018-12-21T07:51:56.943Z,99485.95
2018-12-21T07:54:22.907Z,99485.89
2018-12-21T07:56:48.859Z,99481.98
2018-12-21T07:59:14.816Z,99483.84
2018-12-21T08:01:40.757Z,99476.35
2018-12-21T08:04:06.712Z,99468.84
2018-12-21T08:06:32.672Z,99467.94
2018-12-21T08:08:58.683Z,99466.27
2018-12-21T08:11:24.617Z,99467.55
2018-12-21T08:13:50.563Z,99464.52
2018-12-21T08:16:16.539Z,99461.63
2018-12-21T08:18:42.499Z,99456.20
2018-12-21T08:21:08.493Z,99460.21
2018-12-21T08:23:34.493Z,99450.63
2018-12-21T08:26:00.495Z,99451.73
2018-12-21T08:28:26.448Z,99446.55
2018-12-21T08:30:52.432Z,99446.73
2018-12-21T08:33:18.400Z,99446.05
2018-12-21T08:35:44.355Z,99446.55
2018-12-21T08:38:10.323Z,99443.23
2018-12-21T08:40:36.334Z,99433.73
2018-12-21T08:43:02.276Z,99437.73
2018-12-21T08:45:28.220Z,99433.84
2018-12-21T08:47:54.164Z,99429.42
2018-12-21T08:50:20.119Z,99418.82
2018-12-21T08:52:46.072Z,99420.47
2018-12-21T08:55:12.118Z,99408.94
2018-12-21T08:57:39.209Z,99402.57
2018-12-21T09:00:05.387Z,99402.59
2018-12-21T09:02:31.367Z,99389.50
2018-12-21T09:04:57.356Z,99385.67
2018-12-21T09:07:23.316Z,99378.97
2018-12-21T09:09:49.337Z,99368.34
2018-12-21T09:12:15.308Z,99363.28
2018-12-21T09:14:41.282Z,99365.56
2018-12-21T09:17:07.257Z,99356.52
2018-12-21T09:19:33.212Z,99348.52
2018-12-21T09:21:59.220Z,99349.81
2018-12-21T09:26:56.901Z,99342.03
2018-12-21T09:29:22.880Z,99333.48
2018-12-21T09:31:48.857Z,99335.66
2018-12-21T09:34:14.865Z,99334.02
2018-12-21T09:36:43.894Z,99325.26
2018-12-21T09:39:09.867Z,99322.73
2018-12-21T09:41:35.907Z,99313.63
2018-12-21T09:44:01.902Z,99301.45
2018-12-21T09:46:27.938Z,99300.75
2018-12-21T09:48:53.895Z,99295.53
2018-12-21T09:51:19.853Z,99292.71
2018-12-21T09:53:45.812Z,99282.61
2018-12-21T09:56:11.816Z,99277.48
2018-12-21T09:58:37.771Z,99271.97
2018-12-21T10:01:03.764Z,99259.92
2018-12-21T10:03:29.797Z,99261.48
2018-12-21T10:05:55.780Z,99245.16
2018-12-21T10:08:21.742Z,99261.13
2018-12-21T10:10:47.731Z,99260.77
2018-12-21T10:13:13.708Z,99251.66
2018-12-21T10:15:39.685Z,99244.91
2018-12-21T10:18:05.665Z,99235.34
2018-12-21T10:20:31.654Z,99228.80
2018-12-21T10:22:57.634Z,99224.18
2018-12-21T10:25:23.604Z,99223.21
2018-12-21T10:27:49.593Z,99231.51
2018-12-21T10:30:15.557Z,99221.08
2018-12-21T10:32:43.510Z,99217.02
2018-12-21T10:35:11.473Z,99211.52
2018-12-21T10:37:37.449Z,99200.47
2018-12-21T10:40:03.401Z,99200.20
2018-12-21T10:42:29.376Z,99189.17
2018-12-21T10:44:55.313Z,99181.12
2018-12-21T10:47:21.272Z,99175.85
2018-12-21T10:49:47.243Z,99169.25
2018-12-21T10:52:13.215Z,99158.46
2018-12-21T10:54:39.208Z,99146.26
2018-12-21T10:57:05.177Z,99130.82
2018-12-21T10:59:31.144Z,99129.21
2018-12-21T11:01:57.110Z,99132.87
2018-12-21T11:04:23.068Z,99128.62
2018-12-21T11:06:49.040Z,99120.91
2018-12-21T11:09:15.016Z,99110.47
2018-12-21T11:11:40.977Z,99101.96
2018-12-21T11:14:06.917Z,99089.83
2018-12-21T11:16:32.961Z,99081.38
2018-12-21T11:18:58.980Z,99069.33
2018-12-21T11:21:24.932Z,99068.64
2018-12-21T11:23:50.892Z,99064.29
2018-12-21T11:26:16.861Z,99061.97
2018-12-21T11:28:42.881Z,99050.84
2018-12-21T11:31:08.832Z,99037.98
2018-12-21T11:33:34.812Z,99036.97
2018-12-21T11:36:00.782Z,99026.03
2018-12-21T11:38:26.760Z,99016.73
2018-12-21T11:40:52.803Z,99016.53
2018-12-21T11:43:18.785Z,99017.95
2018-12-21T11:45:44.780Z,99011.25
2018-12-21T11:48:10.761Z,99016.77
2018-12-21T11:50:36.732Z,99008.08
2018-12-21T11:53:03.502Z,99001.98
2018-12-21T11:55:29.437Z,98995.34
2018-12-21T11:57:55.425Z,98981.57
2018-12-21T12:00:22.108Z,98981.58
2018-12-21T12:02:48.087Z,98968.97
2018-12-21T12:05:14.032Z,98966.53
2018-12-21T12:07:40.152Z,98945.95
2018-12-21T12:10:06.331Z,98950.20
2018-12-21T12:12:32.320Z,98932.23
2018-12-21T12:14:58.295Z,98936.97
2018-12-21T12:17:24.285Z,98920.87
2018-12-21T12:19:50.228Z,98911.77
2018-12-21T12:22:16.225Z,98906.01
2018-12-21T12:24:42.195Z,98895.66
2018-12-21T12:27:08.175Z,98892.48
2018-12-21T12:29:34.139Z,98880.98
2018-12-21T12:32:00.106Z,98881.17
2018-12-21T12:34:26.051Z,98874.75
2018-12-21T12:36:52.011Z,98864.91
2018-12-21T12:39:17.965Z,98860.95
2018-12-21T12:41:43.914Z,98860.95
2018-12-21T12:44:09.878Z,98864.96
2018-12-21T12:46:35.825Z,98852.52
2018-12-21T12:49:01.796Z,98841.05
2018-12-21T12:51:27.767Z,98838.34
2018-12-21T12:53:53.767Z,98828.27
2018-12-21T12:56:19.997Z,98829.23
2018-12-21T12:58:45.997Z,98812.55
2018-12-21T13:01:11.946Z,98806.75
2018-12-21T13:03:37.924Z,98804.34
2018-12-21T13:06:03.899Z,98790.05
2018-12-21T13:08:29.984Z,98785.72
2018-12-21T13:10:55.984Z,98778.48
2018-12-21T13:13:21.958Z,98778.20
2018-12-21T13:15:47.929Z,98762.58
2018-12-21T13:18:14.772Z,98756.16
2018-12-21T13:20:40.721Z,98754.33
2018-12-21T13:23:06.687Z,98742.05
2018-12-21T13:25:32.659Z,98745.95
2018-12-21T13:27:58.627Z,98743.98
2018-12-21T13:30:27.289Z,98746.09
2018-12-21T13:32:53.294Z,98728.27
2018-12-21T13:35:19.357Z,98717.88
2018-12-21T13:37:45.319Z,98706.27
2018-12-21T13:40:11.288Z,98705.75
2018-12-21T13:42:37.263Z,98710.41
2018-12-21T13:45:03.251Z,98711.73
2018-12-21T13:47:29.195Z,98706.96
2018-12-21T13:49:55.204Z,98692.67
2018-12-21T13:52:21.151Z,98681.33
2018-12-21T13:54:47.145Z,98686.58
2018-12-21T13:57:13.096Z,98681.44
2018-12-21T13:59:39.154Z,98676.97
2018-12-21T14:02:05.126Z,98674.13
2018-12-21T14:04:31.110Z,98663.30
2018-12-21T14:06:57.101Z,98669.35
2018-12-21T14:09:23.084Z,98658.14
2018-12-21T14:11:49.068Z,98656.36
2018-12-21T14:14:15.094Z,98640.51
2018-12-21T14:16:41.068Z,98643.61
2018-12-21T14:19:08.072Z,98645.39
2018-12-21T14:21:34.357Z,98637.30
2018-12-21T14:24:00.455Z,98638.81
2018-12-21T14:26:26.500Z,98637.75
2018-12-21T14:28:53.074Z,98626.50
2018-12-21T14:31:19.058Z,98628.56
2018-12-21T14:33:45.017Z,98628.59
2018-12-21T14:36:12.237Z,98626.86
2018-12-21T14:38:38.179Z,98615.03
2018-12-21T14:41:05.795Z,98626.37
2018-12-21T14:43:32.657Z,98623.94
2018-12-21T14:45:58.680Z,98597.97
2018-12-21T14:48:25.313Z,98596.38
2018-12-21T14:50:51.344Z,98582.73
2018-12-21T14:53:17.351Z,98578.31
2018-12-21T14:55:43.341Z,98572.55
2018-12-21T14:58:09.324Z,98574.34
2018-12-21T15:00:41.378Z,98568.91
2018-12-21T15:03:07.485Z,98558.99
2018-12-21T15:05:33.484Z,98547.12
2018-12-21T15:08:00.075Z,98551.90
2018-12-21T15:10:26.025Z,98544.80
2018-12-21T15:12:51.980Z,98532.17
2018-12-21T15:15:17.957Z,98528.88
2018-12-21T15:17:43.908Z,98523.59
2018-12-21T15:20:09.896Z,98514.55
2018-12-21T15:22:35.846Z,98514.30
2018-12-21T15:25:01.815Z,98509.84
2018-12-21T15:27:28.729Z,98515.55
2018-12-21T15:29:54.701Z,98505.11
2018-12-21T15:32:21.747Z,98492.27
2018-12-21T15:34:47.717Z,98508.66
2018-12-21T15:37:13.668Z,98497.61
2018-12-21T15:39:39.675Z,98492.92
2018-12-21T15:42:06.325Z,98485.53
2018-12-21T15:44:32.314Z,98484.02
2018-12-21T15:46:59.269Z,98486.88
2018-12-21T15:49:26.197Z,98476.37
2018-12-21T15:51:52.181Z,98458.53
2018-12-21T15:54:18.156Z,98466.08
2018-12-21T15:56:44.449Z,98462.36
2018-12-21T15:59:10.415Z,98463.47
2018-12-21T16:01:36.988Z,98460.67
2018-12-21T16:04:03.520Z,98444.34
2018-12-21T16:06:29.483Z,98457.67
2018-12-21T16:08:56.210Z,98449.30
2018-12-21T16:11:22.212Z,98447.73
2018-12-21T16:13:48.189Z,98437.68
2018-12-21T16:16:14.193Z,98434.15
2018-12-21T16:18:40.686Z,98429.61
2018-12-21T16:21:06.662Z,98428.48
2018-12-21T16:23:32.639Z,98420.92
2018-12-21T16:26:03.474Z,98419.23
2018-12-21T16:28:26.621Z,98411.58
2018-12-21T16:30:52.577Z,98421.38
2018-12-21T16:33:18.560Z,98408.25
2018-12-21T16:35:44.538Z,98393.99
2018-12-21T16:38:10.501Z,98401.69
2018-12-21T16:40:36.480Z,98405.95
2018-12-21T16:43:02.424Z,98396.19
2018-12-21T16:45:28.493Z,98391.40
2018-12-21T16:47:54.440Z,98400.84
2018-12-21T16:50:20.378Z,98399.65
2018-12-21T16:52:46.331Z,98380.09
2018-12-21T16:55:12.321Z,98393.80
2018-12-21T16:57:38.280Z,98404.26
2018-12-21T17:00:04.256Z,98404.73
2018-12-21T17:02:30.197Z,98392.11
2018-12-21T17:04:56.159Z,98394.34
2018-12-21T17:07:22.158Z,98387.33
2018-12-21T17:09:48.133Z,98398.24
2018-12-21T17:12:14.095Z,98379.98
2018-12-21T17:14:40.826Z,98390.31
2018-12-21T17:17:06.815Z,98385.22
2018-12-21T17:19:32.789Z,98385.31
2018-12-21T17:21:58.775Z,98384.41
2018-12-21T17:24:25.603Z,98387.30
2018-12-21T17:26:51.597Z,98382.08
2018-12-21T17:29:18.751Z,98380.25
2018-12-21T17:31:44.720Z,98371.41
2018-12-21T17:34:10.720Z,98376.47
2018-12-21T17:36:36.698Z,98378.42
2018-12-21T17:39:03.405Z,98362.63
2018-12-21T17:41:29.369Z,98361.31
2018-12-21T17:43:55.329Z,98366.16
2018-12-21T17:46:21.290Z,98363.03
2018-12-21T17:48:47.251Z,98371.26
2018-12-21T17:51:13.364Z,98363.41
2018-12-21T17:53:40.514Z,98381.84
2018-12-21T17:56:06.601Z,98384.71
2018-12-21T17:58:33.122Z,98364.21
2018-12-21T18:00:59.061Z,98390.03
2018-12-21T18:03:25.070Z,98377.90
2018-12-21T18:05:51.040Z,98376.63
2018-12-21T18:08:17.012Z,98392.02
2018-12-21T18:10:42.956Z,98386.59
2018-12-21T18:13:08.921Z,98396.56
2018-12-21T18:15:34.860Z,98380.03
2018-12-21T18:18:00.799Z,98395.92
2018-12-21T18:20:27.385Z,98408.09
2018-12-21T18:22:53.371Z,98394.56
2018-12-21T18:25:19.344Z,98394.83
2018-12-21T18:27:45.362Z,98388.08
2018-12-21T18:30:11.317Z,98393.36
2018-12-21T18:32:37.300Z,98390.67
2018-12-21T18:35:04.462Z,98393.16
2018-12-21T18:37:31.208Z,98385.29
2018-12-21T18:39:57.167Z,98372.92
2018-12-21T18:42:23.142Z,98388.83
2018-12-21T18:44:49.096Z,98383.98
2018-12-21T18:47:15.070Z,98395.61
2018-12-21T18:49:42.143Z,98398.94
2018-12-21T18:54:44.099Z,98413.20
2018-12-21T18:57:11.091Z,98417.75
2018-12-21T18:59:37.198Z,98409.30
2018-12-21T19:02:04.092Z,98404.14
2018-12-21T19:04:33.462Z,98417.38
2018-12-21T19:06:59.442Z,98413.67
2018-12-21T19:09:26.128Z,98411.50
2018-12-21T19:11:52.096Z,98412.23
2018-12-21T19:14:18.065Z,98408.24
2018-12-21T19:16:44.076Z,98404.33
2018-12-21T19:19:10.048Z,98398.84
2018-12-21T19:21:36.000Z,98400.42
2018-12-21T19:24:02.024Z,98399.38
2018-12-21T19:26:28.003Z,98414.45
2018-12-21T19:28:53.999Z,98410.12
2018-12-21T19:31:20.034Z,98409.47
2018-12-21T19:33:46.041Z,98414.61
2018-12-21T19:36:11.997Z,98418.06
2018-12-21T19:38:37.982Z,98412.46
2018-12-21T19:41:03.973Z,98431.61
2018-12-21T19:43:29.972Z,98409.64
2018-12-21T19:45:56.975Z,98400.09
2018-12-21T19:48:22.940Z,98420.07
2018-12-21T19:50:49.735Z,98421.52
2018-12-21T19:53:16.772Z,98419.62
2018-12-21T19:55:42.764Z,98412.02
2018-12-21T19:58:08.739Z,98414.66
2018-12-21T20:00:34.701Z,98408.41
2018-12-21T20:03:00.660Z,98409.62
2018-12-21T20:05:26.651Z,98418.59
2018-12-21T20:07:52.604Z,98430.95
2018-12-21T20:10:19.175Z,98413.95
2018-12-21T20:12:45.149Z,98408.77
2018-12-21T20:15:11.140Z,98421.69
2018-12-21T20:17:37.144Z,98437.03
2018-12-21T20:20:03.111Z,98442.28
2018-12-21T20:22:29.251Z,98450.00
2018-12-21T20:24:55.250Z,98451.21
2018-12-21T20:27:21.224Z,98440.75
2018-12-21T20:29:47.336Z,98432.81
2018-12-21T20:32:13.340Z,98434.75
2018-12-21T20:34:39.353Z,98423.43
2018-12-21T20:37:05.312Z,98417.25
2018-12-21T20:39:33.292Z,98424.78
2018-12-21T20:41:59.288Z,98422.22
2018-12-21T20:44:25.309Z,98436.69
2018-12-21T20:46:51.410Z,98425.11
2018-12-21T20:49:17.507Z,98436.92
2018-12-21T20:51:43.487Z,98439.83
2018-12-21T20:54:09.615Z,98439.13
2018-12-21T20:56:35.664Z,98444.36
2018-12-21T20:59:01.694Z,98452.23
2018-12-21T21:01:27.659Z,98452.58
2018-12-21T21:03:53.639Z,98450.78
2018-12-21T21:06:19.605Z,98470.23
2018-12-21T21:08:45.569Z,98470.16
2018-12-21T21:11:11.530Z,98465.88
2018-12-21T21:13:37.611Z,98480.66
2018-12-21T21:16:03.577Z,98482.88
2018-12-21T21:18:29.615Z,98491.75
2018-12-21T21:20:55.577Z,98520.63
2018-12-21T21:23:21.545Z,98497.54
2018-12-21T21:25:47.489Z,98496.30
2018-12-21T21:28:13.550Z,98499.61
2018-12-21T21:30:39.580Z,98500.53
2018-12-21T21:33:05.673Z,98521.78
2018-12-21T21:35:31.731Z,98509.63
2018-12-21T21:37:57.696Z,98531.59
2018-12-21T21:40:23.668Z,98507.19
2018-12-21T21:42:57.239Z,98516.76
2018-12-21T21:45:17.719Z,98512.00
2018-12-21T21:47:43.675Z,98514.11
2018-12-21T21:50:10.019Z,98543.17
2018-12-21T21:52:35.958Z,98531.41
2018-12-21T21:55:01.915Z,98555.36
2018-12-21T21:57:27.849Z,98555.42
2018-12-21T21:59:53.802Z,98564.50
2018-12-21T22:02:19.745Z,98557.66
2018-12-21T22:04:45.742Z,98558.55
2018-12-21T22:07:11.829Z,98566.51
2018-12-21T22:09:37.822Z,98555.41
2018-12-21T22:12:03.757Z,98548.83
2018-12-21T22:14:29.705Z,98549.37
2018-12-21T22:16:55.642Z,98550.98
2018-12-21T22:19:21.595Z,98541.92
2018-12-21T22:21:47.610Z,98538.31
2018-12-21T22:24:13.544Z,98544.17
2018-12-21T22:26:39.528Z,98549.26
2018-12-21T22:29:05.480Z,98547.20
2018-12-21T22:31:31.464Z,98547.08
2018-12-21T22:33:58.440Z,98536.56
2018-12-21T22:36:25.522Z,98536.56
2018-12-21T22:38:51.457Z,98545.23
2018-12-21T22:41:17.413Z,98554.66
2018-12-21T22:43:43.383Z,98552.26
2018-12-21T22:46:09.366Z,98558.06
2018-12-21T22:48:35.339Z,98563.33
2018-12-21T22:51:01.316Z,98563.60
2018-12-21T22:53:27.271Z,98574.92
2018-12-21T22:55:53.244Z,98567.19
2018-12-21T22:58:19.200Z,98584.38
2018-12-21T23:00:45.143Z,98581.70
2018-12-21T23:03:11.100Z,98586.33
2018-12-21T23:05:37.046Z,98585.09
2018-12-21T23:08:02.995Z,98588.09
2018-12-21T23:10:28.936Z,98594.69
2018-12-21T23:12:54.869Z,98596.53
2018-12-21T23:15:20.864Z,98592.46
2018-12-21T23:17:46.875Z,98597.36
2018-12-21T23:20:12.824Z,98586.89
2018-12-21T23:22:38.876Z,98601.48
2018-12-21T23:25:04.815Z,98602.12
2018-12-21T23:27:30.784Z,98603.23
2018-12-21T23:29:56.742Z,98607.61
2018-12-21T23:32:22.756Z,98615.33
2018-12-21T23:34:48.748Z,98617.24
2018-12-21T23:37:14.708Z,98610.53
2018-12-21T23:39:40.669Z,98612.72
2018-12-21T23:42:06.636Z,98623.66
2018-12-21T23:44:32.596Z,98624.66
2018-12-21T23:46:58.614Z,98625.95
2018-12-21T23:49:24.543Z,98627.84
2018-12-21T23:51:50.524Z,98632.72
2018-12-21T23:54:16.479Z,98629.23
2018-12-21T23:56:42.474Z,98626.03
2018-12-21T23:59:08.430Z,98631.55
